sensor_id;sensor_type;location;lat;lon;timestamp;pressure;altitude;pressure_sealevel;temperature;humidity
68226;BME280;55045;49.410;11.030;2023-05-24T00:01:37;98301.91;;;10.39;100.00
68226;BME280;55045;49.410;11.030;2023-05-24T00:04:43;98301.22;;;10.54;100.00
68226;BME280;55045;49.410;11.030;2023-05-24T00:07:48;98302.31;;;10.49;100.00
68226;BME280;55045;49.410;11.030;2023-05-24T00:10:51;98306.09;;;10.42;100.00
68226;BME280;55045;49.410;11.030;2023-05-24T00:13:54;98303.44;;;10.62;100.00
68226;BME280;55045;49.410;11.030;2023-05-24T00:16:58;98295.59;;;10.45;100.00
68226;BME280;55045;49.410;11.030;2023-05-24T00:20:02;98300.94;;;10.60;100.00
68226;BME280;55045;49.410;11.030;2023-05-24T00:23:09;98300.22;;;10.38;100.00
68226;BME280;55045;49.410;11.030;2023-05-24T00:26:13;98290.69;;;10.57;100.00
68226;BME280;55045;49.410;11.030;2023-05-24T00:29:23;98290.91;;;10.34;100.00
68226;BME280;55045;49.410;11.030;2023-05-24T00:32:27;98288.09;;;10.57;100.00
68226;BME280;55045;49.410;11.030;2023-05-24T00:35:31;98284.50;;;10.41;100.00
68226;BME280;55045;49.410;11.030;2023-05-24T00:38:36;98281.31;;;10.36;100.00
68226;BME280;55045;49.410;11.030;2023-05-24T00:41:39;98277.66;;;10.40;100.00
68226;BME280;55045;49.410;11.030;2023-05-24T00:44:42;98268.91;;;10.43;100.00
68226;BME280;55045;49.410;11.030;2023-05-24T00:47:45;98281.31;;;10.55;100.00
68226;BME280;55045;49.410;11.030;2023-05-24T00:50:49;98275.16;;;10.57;100.00
68226;BME280;55045;49.410;11.030;2023-05-24T00:53:54;98281.09;;;10.97;100.00
68226;BME280;55045;49.410;11.030;2023-05-24T00:56:57;98277.09;;;10.52;100.00
68226;BME280;55045;49.410;11.030;2023-05-24T01:00:01;98277.78;;;10.37;100.00
68226;BME280;55045;49.410;11.030;2023-05-24T01:03:05;98274.91;;;10.81;100.00
68226;BME280;55045;49.410;11.030;2023-05-24T01:06:12;98267.00;;;10.27;100.00
68226;BME280;55045;49.410;11.030;2023-05-24T01:09:28;98281.31;;;10.55;100.00
68226;BME280;55045;49.410;11.030;2023-05-24T01:12:45;98266.25;;;10.44;100.00
68226;BME280;55045;49.410;11.030;2023-05-24T01:15:55;98264.22;;;10.32;100.00
68226;BME280;55045;49.410;11.030;2023-05-24T01:19:04;98266.94;;;10.66;100.00
68226;BME280;55045;49.410;11.030;2023-05-24T01:22:25;98234.00;;;10.10;100.00
68226;BME280;55045;49.410;11.030;2023-05-24T01:25:44;98263.72;;;10.03;100.00
68226;BME280;55045;49.410;11.030;2023-05-24T01:28:49;98262.03;;;10.23;100.00
68226;BME280;55045;49.410;11.030;2023-05-24T01:31:53;98264.84;;;10.17;100.00
68226;BME280;55045;49.410;11.030;2023-05-24T01:34:57;98256.50;;;10.10;100.00
68226;BME280;55045;49.410;11.030;2023-05-24T01:38:00;98264.63;;;10.23;100.00
68226;BME280;55045;49.410;11.030;2023-05-24T01:41:09;98266.81;;;10.12;100.00
68226;BME280;55045;49.410;11.030;2023-05-24T01:44:26;98260.97;;;10.27;100.00
68226;BME280;55045;49.410;11.030;2023-05-24T01:47:41;98266.38;;;10.02;100.00
68226;BME280;55045;49.410;11.030;2023-05-24T01:50:53;98234.41;;;9.82;100.00
68226;BME280;55045;49.410;11.030;2023-05-24T01:54:00;98263.72;;;10.24;100.00
68226;BME280;55045;49.410;11.030;2023-05-24T01:57:06;98278.41;;;10.03;100.00
68226;BME280;55045;49.410;11.030;2023-05-24T02:00:13;98256.69;;;10.05;100.00
68226;BME280;55045;49.410;11.030;2023-05-24T02:03:20;98270.72;;;10.22;100.00
68226;BME280;55045;49.410;11.030;2023-05-24T02:06:23;98272.72;;;9.95;100.00
68226;BME280;55045;49.410;11.030;2023-05-24T02:09:26;98271.75;;;9.97;100.00
68226;BME280;55045;49.410;11.030;2023-05-24T02:12:29;98272.59;;;10.37;100.00
68226;BME280;55045;49.410;11.030;2023-05-24T02:15:34;98279.50;;;9.97;100.00
68226;BME280;55045;49.410;11.030;2023-05-24T02:18:37;98276.13;;;10.16;100.00
68226;BME280;55045;49.410;11.030;2023-05-24T02:21:41;98285.34;;;9.62;100.00
68226;BME280;55045;49.410;11.030;2023-05-24T02:24:45;98276.75;;;10.21;100.00
68226;BME280;55045;49.410;11.030;2023-05-24T02:27:49;98276.28;;;9.92;100.00
68226;BME280;55045;49.410;11.030;2023-05-24T02:30:54;98277.56;;;10.02;100.00
68226;BME280;55045;49.410;11.030;2023-05-24T02:33:58;98285.47;;;9.79;100.00
68226;BME280;55045;49.410;11.030;2023-05-24T02:37:01;98278.72;;;10.16;100.00
68226;BME280;55045;49.410;11.030;2023-05-24T02:40:06;98277.25;;;9.90;100.00
68226;BME280;55045;49.410;11.030;2023-05-24T02:43:10;98280.19;;;9.82;100.00
68226;BME280;55045;49.410;11.030;2023-05-24T02:46:15;98277.91;;;9.95;100.00
68226;BME280;55045;49.410;11.030;2023-05-24T02:49:18;98279.44;;;9.99;100.00
68226;BME280;55045;49.410;11.030;2023-05-24T02:52:21;98284.91;;;9.72;100.00
68226;BME280;55045;49.410;11.030;2023-05-24T02:55:24;98157.06;;;9.14;100.00
68226;BME280;55045;49.410;11.030;2023-05-24T02:58:29;98273.03;;;10.07;100.00
68226;BME280;55045;49.410;11.030;2023-05-24T03:01:34;98274.84;;;10.26;100.00
68226;BME280;55045;49.410;11.030;2023-05-24T03:04:37;98281.50;;;10.11;100.00
68226;BME280;55045;49.410;11.030;2023-05-24T03:07:43;98274.69;;;10.08;100.00
68226;BME280;55045;49.410;11.030;2023-05-24T03:10:46;98280.94;;;9.84;100.00
68226;BME280;55045;49.410;11.030;2023-05-24T03:13:50;98281.66;;;9.88;100.00
68226;BME280;55045;49.410;11.030;2023-05-24T03:16:55;98278.53;;;10.00;100.00
68226;BME280;55045;49.410;11.030;2023-05-24T03:19:58;98287.56;;;9.71;100.00
68226;BME280;55045;49.410;11.030;2023-05-24T03:23:05;98272.66;;;9.96;100.00
68226;BME280;55045;49.410;11.030;2023-05-24T03:26:08;98283.53;;;9.84;100.00
68226;BME280;55045;49.410;11.030;2023-05-24T03:29:14;98283.41;;;9.67;100.00
68226;BME280;55045;49.410;11.030;2023-05-24T03:34:30;98293.25;;;9.79;100.00
68226;BME280;55045;49.410;11.030;2023-05-24T03:37:34;98291.69;;;9.55;100.00
68226;BME280;55045;49.410;11.030;2023-05-24T03:40:37;98293.75;;;9.87;100.00
68226;BME280;55045;49.410;11.030;2023-05-24T03:43:46;98294.91;;;9.60;100.00
68226;BME280;55045;49.410;11.030;2023-05-24T03:46:51;98292.69;;;9.72;100.00
68226;BME280;55045;49.410;11.030;2023-05-24T03:49:56;98288.97;;;9.78;100.00
68226;BME280;55045;49.410;11.030;2023-05-24T03:52:59;98286.06;;;9.86;100.00
68226;BME280;55045;49.410;11.030;2023-05-24T03:56:02;98289.50;;;9.66;100.00
68226;BME280;55045;49.410;11.030;2023-05-24T03:59:08;98286.38;;;9.98;100.00
68226;BME280;55045;49.410;11.030;2023-05-24T04:02:11;98294.97;;;9.58;100.00
68226;BME280;55045;49.410;11.030;2023-05-24T04:05:16;98303.09;;;9.50;100.00
68226;BME280;55045;49.410;11.030;2023-05-24T04:08:19;98303.13;;;9.49;100.00
68226;BME280;55045;49.410;11.030;2023-05-24T04:11:23;98309.03;;;9.52;100.00
68226;BME280;55045;49.410;11.030;2023-05-24T04:14:29;98304.22;;;9.43;100.00
68226;BME280;55045;49.410;11.030;2023-05-24T04:17:32;98311.19;;;9.84;100.00
68226;BME280;55045;49.410;11.030;2023-05-24T04:20:37;98296.28;;;10.09;100.00
68226;BME280;55045;49.410;11.030;2023-05-24T04:23:41;98306.19;;;9.59;100.00
68226;BME280;55045;49.410;11.030;2023-05-24T04:26:44;98300.97;;;9.38;100.00
68226;BME280;55045;49.410;11.030;2023-05-24T04:29:48;98303.75;;;9.76;100.00
68226;BME280;55045;49.410;11.030;2023-05-24T04:32:53;98306.84;;;9.84;100.00
68226;BME280;55045;49.410;11.030;2023-05-24T04:35:58;98306.25;;;9.77;100.00
68226;BME280;55045;49.410;11.030;2023-05-24T04:39:03;98304.00;;;9.90;100.00
68226;BME280;55045;49.410;11.030;2023-05-24T04:42:06;98301.13;;;9.56;100.00
68226;BME280;55045;49.410;11.030;2023-05-24T04:45:10;98309.06;;;9.73;100.00
68226;BME280;55045;49.410;11.030;2023-05-24T04:48:13;98300.16;;;9.78;100.00
68226;BME280;55045;49.410;11.030;2023-05-24T04:51:18;98306.97;;;9.61;100.00
68226;BME280;55045;49.410;11.030;2023-05-24T04:54:21;98304.19;;;9.65;100.00
68226;BME280;55045;49.410;11.030;2023-05-24T04:57:24;98304.63;;;9.55;100.00
68226;BME280;55045;49.410;11.030;2023-05-24T05:00:28;98306.41;;;9.74;100.00
68226;BME280;55045;49.410;11.030;2023-05-24T05:03:31;98313.13;;;9.78;100.00
68226;BME280;55045;49.410;11.030;2023-05-24T05:06:36;98308.53;;;9.85;100.00
68226;BME280;55045;49.410;11.030;2023-05-24T05:09:41;98305.41;;;9.57;100.00
68226;BME280;55045;49.410;11.030;2023-05-24T05:12:45;98311.13;;;9.85;100.00
68226;BME280;55045;49.410;11.030;2023-05-24T05:15:49;98307.47;;;9.69;100.00
68226;BME280;55045;49.410;11.030;2023-05-24T05:18:52;98317.16;;;9.86;100.00
68226;BME280;55045;49.410;11.030;2023-05-24T05:21:57;98308.47;;;9.87;100.00
68226;BME280;55045;49.410;11.030;2023-05-24T05:25:00;98305.78;;;10.08;100.00
68226;BME280;55045;49.410;11.030;2023-05-24T05:28:06;98310.41;;;9.61;100.00
68226;BME280;55045;49.410;11.030;2023-05-24T05:31:09;98317.59;;;9.75;100.00
68226;BME280;55045;49.410;11.030;2023-05-24T05:34:12;98323.00;;;9.48;100.00
68226;BME280;55045;49.410;11.030;2023-05-24T05:37:17;98312.53;;;9.51;100.00
68226;BME280;55045;49.410;11.030;2023-05-24T05:40:20;98309.69;;;9.78;100.00
68226;BME280;55045;49.410;11.030;2023-05-24T05:43:23;98313.84;;;9.62;100.00
68226;BME280;55045;49.410;11.030;2023-05-24T05:46:27;98318.88;;;9.65;100.00
68226;BME280;55045;49.410;11.030;2023-05-24T05:49:30;98320.81;;;9.60;100.00
68226;BME280;55045;49.410;11.030;2023-05-24T05:52:38;98315.53;;;9.83;100.00
68226;BME280;55045;49.410;11.030;2023-05-24T05:55:41;98329.00;;;9.71;100.00
68226;BME280;55045;49.410;11.030;2023-05-24T05:58:45;98327.00;;;9.98;100.00
68226;BME280;55045;49.410;11.030;2023-05-24T06:01:48;98320.19;;;9.75;100.00
68226;BME280;55045;49.410;11.030;2023-05-24T06:04:52;98332.47;;;9.90;100.00
68226;BME280;55045;49.410;11.030;2023-05-24T06:07:56;98344.03;;;9.83;100.00
68226;BME280;55045;49.410;11.030;2023-05-24T06:11:00;98351.53;;;10.09;100.00
68226;BME280;55045;49.410;11.030;2023-05-24T06:14:07;98347.31;;;9.66;100.00
68226;BME280;55045;49.410;11.030;2023-05-24T06:17:12;98342.91;;;9.68;100.00
68226;BME280;55045;49.410;11.030;2023-05-24T06:20:15;98344.22;;;9.99;100.00
68226;BME280;55045;49.410;11.030;2023-05-24T06:23:20;98338.63;;;9.67;100.00
68226;BME280;55045;49.410;11.030;2023-05-24T06:26:24;98346.25;;;9.92;100.00
68226;BME280;55045;49.410;11.030;2023-05-24T06:29:27;98343.69;;;9.91;100.00
68226;BME280;55045;49.410;11.030;2023-05-24T06:32:31;98347.84;;;9.74;100.00
68226;BME280;55045;49.410;11.030;2023-05-24T06:35:34;98353.03;;;9.95;100.00
68226;BME280;55045;49.410;11.030;2023-05-24T06:38:38;98358.91;;;9.78;100.00
68226;BME280;55045;49.410;11.030;2023-05-24T06:41:42;98364.84;;;10.02;100.00
68226;BME280;55045;49.410;11.030;2023-05-24T06:44:47;98367.34;;;10.03;100.00
68226;BME280;55045;49.410;11.030;2023-05-24T06:47:50;98368.28;;;10.02;100.00
68226;BME280;55045;49.410;11.030;2023-05-24T06:50:53;98367.88;;;9.91;100.00
68226;BME280;55045;49.410;11.030;2023-05-24T06:53:58;98379.03;;;10.14;100.00
68226;BME280;55045;49.410;11.030;2023-05-24T06:57:03;98376.13;;;9.79;100.00
68226;BME280;55045;49.410;11.030;2023-05-24T07:00:07;98370.13;;;10.19;100.00
68226;BME280;55045;49.410;11.030;2023-05-24T07:03:13;98373.41;;;10.45;100.00
68226;BME280;55045;49.410;11.030;2023-05-24T07:06:16;98373.13;;;10.30;100.00
68226;BME280;55045;49.410;11.030;2023-05-24T07:09:21;98377.53;;;10.28;100.00
68226;BME280;55045;49.410;11.030;2023-05-24T07:12:24;98383.03;;;10.21;100.00
68226;BME280;55045;49.410;11.030;2023-05-24T07:15:28;98385.50;;;10.03;100.00
68226;BME280;55045;49.410;11.030;2023-05-24T07:18:31;98382.53;;;10.13;100.00
68226;BME280;55045;49.410;11.030;2023-05-24T07:21:35;98385.25;;;10.30;100.00
68226;BME280;55045;49.410;11.030;2023-05-24T07:24:39;98372.53;;;10.64;100.00
68226;BME280;55045;49.410;11.030;2023-05-24T07:27:42;98385.53;;;10.44;100.00
68226;BME280;55045;49.410;11.030;2023-05-24T07:30:46;98392.13;;;10.31;100.00
68226;BME280;55045;49.410;11.030;2023-05-24T07:33:50;98386.44;;;10.23;100.00
68226;BME280;55045;49.410;11.030;2023-05-24T07:36:53;98386.28;;;10.46;100.00
68226;BME280;55045;49.410;11.030;2023-05-24T07:39:57;98396.28;;;10.35;100.00
68226;BME280;55045;49.410;11.030;2023-05-24T07:43:01;98387.22;;;10.25;100.00
68226;BME280;55045;49.410;11.030;2023-05-24T07:46:05;98383.91;;;9.99;100.00
68226;BME280;55045;49.410;11.030;2023-05-24T07:49:09;98389.63;;;10.68;100.00
68226;BME280;55045;49.410;11.030;2023-05-24T07:52:12;98388.19;;;10.21;100.00
68226;BME280;55045;49.410;11.030;2023-05-24T07:55:17;98386.81;;;10.34;100.00
68226;BME280;55045;49.410;11.030;2023-05-24T07:58:20;98381.09;;;10.46;100.00
68226;BME280;55045;49.410;11.030;2023-05-24T08:01:23;98390.78;;;10.21;100.00
68226;BME280;55045;49.410;11.030;2023-05-24T08:04:30;98388.41;;;9.96;100.00
68226;BME280;55045;49.410;11.030;2023-05-24T08:07:33;98386.78;;;9.93;100.00
68226;BME280;55045;49.410;11.030;2023-05-24T08:10:38;98391.19;;;10.52;100.00
68226;BME280;55045;49.410;11.030;2023-05-24T08:13:42;98391.25;;;10.32;100.00
68226;BME280;55045;49.410;11.030;2023-05-24T08:16:46;98390.59;;;10.27;100.00
68226;BME280;55045;49.410;11.030;2023-05-24T08:19:49;98392.78;;;10.36;100.00
68226;BME280;55045;49.410;11.030;2023-05-24T08:22:52;98395.34;;;10.16;100.00
68226;BME280;55045;49.410;11.030;2023-05-24T08:25:57;98399.75;;;10.14;100.00
68226;BME280;55045;49.410;11.030;2023-05-24T08:29:00;98399.69;;;10.15;100.00
68226;BME280;55045;49.410;11.030;2023-05-24T08:32:04;98407.41;;;10.17;100.00
68226;BME280;55045;49.410;11.030;2023-05-24T08:35:10;98404.91;;;10.35;100.00
68226;BME280;55045;49.410;11.030;2023-05-24T08:38:22;98406.09;;;10.06;100.00
68226;BME280;55045;49.410;11.030;2023-05-24T08:41:27;98412.19;;;10.66;100.00
68226;BME280;55045;49.410;11.030;2023-05-24T08:44:31;98405.22;;;10.87;100.00
68226;BME280;55045;49.410;11.030;2023-05-24T08:47:40;98411.19;;;10.30;100.00
68226;BME280;55045;49.410;11.030;2023-05-24T08:50:45;98399.63;;;10.17;100.00
68226;BME280;55045;49.410;11.030;2023-05-24T08:53:49;98417.88;;;10.35;100.00
68226;BME280;55045;49.410;11.030;2023-05-24T08:56:54;98415.16;;;10.17;100.00
68226;BME280;55045;49.410;11.030;2023-05-24T08:59:57;98418.19;;;10.28;100.00
68226;BME280;55045;49.410;11.030;2023-05-24T09:03:01;98420.22;;;10.20;100.00
68226;BME280;55045;49.410;11.030;2023-05-24T09:06:08;98413.94;;;10.66;100.00
68226;BME280;55045;49.410;11.030;2023-05-24T09:09:11;98428.59;;;10.67;100.00
68226;BME280;55045;49.410;11.030;2023-05-24T09:12:19;98424.66;;;10.38;100.00
68226;BME280;55045;49.410;11.030;2023-05-24T09:15:38;98425.72;;;10.34;100.00
68226;BME280;55045;49.410;11.030;2023-05-24T09:18:41;98429.06;;;10.36;100.00
68226;BME280;55045;49.410;11.030;2023-05-24T09:21:44;98426.16;;;10.64;100.00
68226;BME280;55045;49.410;11.030;2023-05-24T09:24:48;98443.47;;;10.43;100.00
68226;BME280;55045;49.410;11.030;2023-05-24T09:27:54;98428.16;;;10.57;100.00
68226;BME280;55045;49.410;11.030;2023-05-24T09:34:37;98443.63;;;10.79;100.00
68226;BME280;55045;49.410;11.030;2023-05-24T09:37:40;98427.88;;;10.84;100.00
68226;BME280;55045;49.410;11.030;2023-05-24T09:40:44;98435.63;;;10.24;100.00
68226;BME280;55045;49.410;11.030;2023-05-24T09:43:48;98428.16;;;10.37;100.00
68226;BME280;55045;49.410;11.030;2023-05-24T09:46:51;98423.50;;;10.65;100.00
68226;BME280;55045;49.410;11.030;2023-05-24T09:49:56;98437.31;;;10.46;100.00
68226;BME280;55045;49.410;11.030;2023-05-24T09:53:01;98430.75;;;10.57;100.00
68226;BME280;55045;49.410;11.030;2023-05-24T09:56:05;98429.88;;;10.77;100.00
68226;BME280;55045;49.410;11.030;2023-05-24T09:59:09;98435.16;;;10.76;100.00
68226;BME280;55045;49.410;11.030;2023-05-24T10:02:14;98431.94;;;10.89;100.00
68226;BME280;55045;49.410;11.030;2023-05-24T10:05:21;98436.38;;;11.06;100.00
68226;BME280;55045;49.410;11.030;2023-05-24T10:08:25;98431.91;;;10.71;100.00
68226;BME280;55045;49.410;11.030;2023-05-24T10:11:30;98438.84;;;11.09;100.00
68226;BME280;55045;49.410;11.030;2023-05-24T10:14:35;98430.09;;;10.91;100.00
68226;BME280;55045;49.410;11.030;2023-05-24T10:17:38;98431.91;;;10.71;100.00
68226;BME280;55045;49.410;11.030;2023-05-24T10:20:43;98421.03;;;10.81;100.00
68226;BME280;55045;49.410;11.030;2023-05-24T10:23:50;98400.50;;;10.37;100.00
68226;BME280;55045;49.410;11.030;2023-05-24T10:26:55;98415.25;;;11.33;100.00
68226;BME280;55045;49.410;11.030;2023-05-24T10:30:03;98413.44;;;11.35;100.00
68226;BME280;55045;49.410;11.030;2023-05-24T10:33:15;98413.44;;;11.35;100.00
68226;BME280;55045;49.410;11.030;2023-05-24T10:36:21;98412.59;;;10.96;100.00
68226;BME280;55045;49.410;11.030;2023-05-24T10:39:24;98420.66;;;11.09;100.00
68226;BME280;55045;49.410;11.030;2023-05-24T10:42:29;98386.34;;;11.21;100.00
68226;BME280;55045;49.410;11.030;2023-05-24T10:45:36;98398.81;;;11.32;100.00
68226;BME280;55045;49.410;11.030;2023-05-24T10:48:40;98383.06;;;11.54;100.00
68226;BME280;55045;49.410;11.030;2023-05-24T10:51:44;98404.03;;;11.32;100.00
68226;BME280;55045;49.410;11.030;2023-05-24T10:55:01;98411.59;;;11.73;100.00
68226;BME280;55045;49.410;11.030;2023-05-24T10:58:06;98390.44;;;11.08;100.00
68226;BME280;55045;49.410;11.030;2023-05-24T11:01:12;98418.75;;;11.50;100.00
68226;BME280;55045;49.410;11.030;2023-05-24T11:04:17;98418.66;;;11.52;100.00
68226;BME280;55045;49.410;11.030;2023-05-24T11:07:22;98409.50;;;11.26;100.00
68226;BME280;55045;49.410;11.030;2023-05-24T11:10:29;98417.25;;;11.64;100.00
68226;BME280;55045;49.410;11.030;2023-05-24T11:13:35;98417.81;;;11.51;100.00
68226;BME280;55045;49.410;11.030;2023-05-24T11:16:39;98414.91;;;11.76;98.03
68226;BME280;55045;49.410;11.030;2023-05-24T11:19:48;98418.16;;;11.81;98.47
68226;BME280;55045;49.410;11.030;2023-05-24T11:22:53;98411.53;;;11.74;93.95
68226;BME280;55045;49.410;11.030;2023-05-24T11:25:56;98398.53;;;11.93;96.22
68226;BME280;55045;49.410;11.030;2023-05-24T11:29:00;98406.88;;;12.00;96.07
68226;BME280;55045;49.410;11.030;2023-05-24T11:32:06;98415.59;;;12.16;99.07
68226;BME280;55045;49.410;11.030;2023-05-24T11:35:10;98412.59;;;11.70;99.42
68226;BME280;55045;49.410;11.030;2023-05-24T11:38:15;98408.72;;;11.98;99.30
68226;BME280;55045;49.410;11.030;2023-05-24T11:41:18;98409.16;;;11.89;98.93
68226;BME280;55045;49.410;11.030;2023-05-24T11:44:22;98408.75;;;11.60;97.89
68226;BME280;55045;49.410;11.030;2023-05-24T11:47:25;98400.59;;;12.04;100.00
68226;BME280;55045;49.410;11.030;2023-05-24T11:50:28;98401.22;;;12.09;100.00
68226;BME280;55045;49.410;11.030;2023-05-24T11:53:50;98391.69;;;12.60;100.00
68226;BME280;55045;49.410;11.030;2023-05-24T11:56:55;98395.06;;;11.93;95.17
68226;BME280;55045;49.410;11.030;2023-05-24T11:59:59;98396.13;;;12.58;95.49
68226;BME280;55045;49.410;11.030;2023-05-24T12:03:07;98393.38;;;12.77;95.14
68226;BME280;55045;49.410;11.030;2023-05-24T12:06:11;98397.81;;;12.42;96.47
68226;BME280;55045;49.410;11.030;2023-05-24T12:09:18;98389.38;;;12.54;97.45
68226;BME280;55045;49.410;11.030;2023-05-24T12:12:21;98381.78;;;12.66;98.48
68226;BME280;55045;49.410;11.030;2023-05-24T12:15:35;98397.06;;;12.57;98.90
68226;BME280;55045;49.410;11.030;2023-05-24T12:18:38;98376.91;;;12.60;95.77
68226;BME280;55045;49.410;11.030;2023-05-24T12:21:56;98372.91;;;12.71;97.33
68226;BME280;55045;49.410;11.030;2023-05-24T12:25:02;98374.66;;;12.70;93.81
68226;BME280;55045;49.410;11.030;2023-05-24T12:28:06;98372.59;;;12.92;96.07
68226;BME280;55045;49.410;11.030;2023-05-24T12:31:09;98382.47;;;12.70;92.40
68226;BME280;55045;49.410;11.030;2023-05-24T12:34:14;98378.88;;;12.39;92.51
68226;BME280;55045;49.410;11.030;2023-05-24T12:37:18;98375.94;;;12.94;89.49
68226;BME280;55045;49.410;11.030;2023-05-24T12:40:23;98368.44;;;12.57;86.16
68226;BME280;55045;49.410;11.030;2023-05-24T12:43:26;98367.72;;;12.86;87.52
68226;BME280;55045;49.410;11.030;2023-05-24T12:46:29;98364.78;;;12.92;88.10
68226;BME280;55045;49.410;11.030;2023-05-24T12:49:33;98367.41;;;13.55;88.50
68226;BME280;55045;49.410;11.030;2023-05-24T12:52:36;98349.59;;;13.01;88.87
68226;BME280;55045;49.410;11.030;2023-05-24T12:55:41;98365.25;;;13.32;84.55
68226;BME280;55045;49.410;11.030;2023-05-24T12:58:46;98333.16;;;13.32;84.46
68226;BME280;55045;49.410;11.030;2023-05-24T13:01:50;98350.28;;;13.51;84.20
68226;BME280;55045;49.410;11.030;2023-05-24T13:04:54;98349.34;;;13.52;84.64
68226;BME280;55045;49.410;11.030;2023-05-24T13:07:57;98344.81;;;13.09;83.03
68226;BME280;55045;49.410;11.030;2023-05-24T13:11:01;98352.63;;;13.86;87.42
68226;BME280;55045;49.410;11.030;2023-05-24T13:14:09;98353.13;;;13.47;81.50
68226;BME280;55045;49.410;11.030;2023-05-24T13:17:16;98351.53;;;13.90;81.47
68226;BME280;55045;49.410;11.030;2023-05-24T13:20:19;98343.63;;;13.92;81.09
68226;BME280;55045;49.410;11.030;2023-05-24T13:23:23;98336.00;;;14.47;84.19
68226;BME280;55045;49.410;11.030;2023-05-24T13:26:29;98340.69;;;13.52;81.00
68226;BME280;55045;49.410;11.030;2023-05-24T13:29:37;98333.75;;;13.67;84.17
68226;BME280;55045;49.410;11.030;2023-05-24T13:33:01;98340.13;;;13.77;83.54
68226;BME280;55045;49.410;11.030;2023-05-24T13:36:05;98329.53;;;14.24;85.63
68226;BME280;55045;49.410;11.030;2023-05-24T13:39:09;98321.53;;;14.70;86.12
68226;BME280;55045;49.410;11.030;2023-05-24T13:42:16;98317.25;;;14.69;84.38
68226;BME280;55045;49.410;11.030;2023-05-24T13:45:19;98321.84;;;14.65;81.55
68226;BME280;55045;49.410;11.030;2023-05-24T13:48:23;98315.47;;;14.41;81.28
68226;BME280;55045;49.410;11.030;2023-05-24T13:51:27;98320.28;;;14.04;81.99
68226;BME280;55045;49.410;11.030;2023-05-24T13:54:31;98318.06;;;14.27;79.32
68226;BME280;55045;49.410;11.030;2023-05-24T13:57:36;98320.28;;;15.04;80.60
68226;BME280;55045;49.410;11.030;2023-05-24T14:00:53;98312.66;;;14.30;80.03
68226;BME280;55045;49.410;11.030;2023-05-24T14:03:57;98314.38;;;13.87;80.75
68226;BME280;55045;49.410;11.030;2023-05-24T14:07:00;98303.94;;;14.59;80.53
68226;BME280;55045;49.410;11.030;2023-05-24T14:10:04;98303.47;;;14.67;79.91
68226;BME280;55045;49.410;11.030;2023-05-24T14:13:09;98307.44;;;15.28;80.68
68226;BME280;55045;49.410;11.030;2023-05-24T14:16:32;98304.63;;;15.04;81.18
68226;BME280;55045;49.410;11.030;2023-05-24T14:19:36;98307.28;;;14.76;77.63
68226;BME280;55045;49.410;11.030;2023-05-24T14:22:39;98307.06;;;14.93;79.98
68226;BME280;55045;49.410;11.030;2023-05-24T14:25:42;98299.72;;;14.71;77.32
68226;BME280;55045;49.410;11.030;2023-05-24T14:28:49;98296.63;;;15.47;78.23
68226;BME280;55045;49.410;11.030;2023-05-24T14:31:56;98291.16;;;14.83;78.78
68226;BME280;55045;49.410;11.030;2023-05-24T14:34:59;98289.59;;;14.52;78.42
68226;BME280;55045;49.410;11.030;2023-05-24T14:38:04;98289.22;;;14.73;80.83
68226;BME280;55045;49.410;11.030;2023-05-24T14:41:07;98294.78;;;14.66;82.86
68226;BME280;55045;49.410;11.030;2023-05-24T14:44:12;98287.69;;;14.26;80.09
68226;BME280;55045;49.410;11.030;2023-05-24T14:47:15;98296.44;;;14.10;79.49
68226;BME280;55045;49.410;11.030;2023-05-24T14:50:18;98298.72;;;14.45;79.80
68226;BME280;55045;49.410;11.030;2023-05-24T14:53:22;98286.16;;;14.52;81.55
68226;BME280;55045;49.410;11.030;2023-05-24T14:56:25;98294.78;;;14.66;80.11
68226;BME280;55045;49.410;11.030;2023-05-24T14:59:30;98292.09;;;14.68;79.12
68226;BME280;55045;49.410;11.030;2023-05-24T15:02:34;98295.69;;;14.94;79.48
68226;BME280;55045;49.410;11.030;2023-05-24T15:05:37;98291.31;;;14.80;77.61
68226;BME280;55045;49.410;11.030;2023-05-24T15:08:42;98292.38;;;14.63;80.88
68226;BME280;55045;49.410;11.030;2023-05-24T15:11:45;98299.44;;;14.76;78.47
68226;BME280;55045;49.410;11.030;2023-05-24T15:14:50;98294.44;;;14.73;83.36
68226;BME280;55045;49.410;11.030;2023-05-24T15:17:53;98293.31;;;14.62;80.34
68226;BME280;55045;49.410;11.030;2023-05-24T15:20:56;98294.59;;;14.69;81.97
68226;BME280;55045;49.410;11.030;2023-05-24T15:24:00;98297.84;;;14.87;78.00
68226;BME280;55045;49.410;11.030;2023-05-24T15:27:03;98281.81;;;14.79;79.51
68226;BME280;55045;49.410;11.030;2023-05-24T15:30:08;98299.69;;;15.26;80.45
68226;BME280;55045;49.410;11.030;2023-05-24T15:34:30;98302.75;;;15.06;81.00
68226;BME280;55045;49.410;11.030;2023-05-24T15:37:34;98297.97;;;14.72;82.27
68226;BME280;55045;49.410;11.030;2023-05-24T15:40:37;98270.44;;;14.37;82.09
68226;BME280;55045;49.410;11.030;2023-05-24T15:43:43;98290.97;;;14.72;79.30
68226;BME280;55045;49.410;11.030;2023-05-24T15:46:46;98299.44;;;14.76;79.56
68226;BME280;55045;49.410;11.030;2023-05-24T15:49:51;98295.75;;;14.51;79.87
68226;BME280;55045;49.410;11.030;2023-05-24T15:52:54;98288.81;;;14.79;82.17
68226;BME280;55045;49.410;11.030;2023-05-24T15:55:57;98298.41;;;14.78;81.32
68226;BME280;55045;49.410;11.030;2023-05-24T15:59:07;98295.56;;;14.54;79.04
68226;BME280;55045;49.410;11.030;2023-05-24T16:02:11;98294.44;;;14.73;79.41
68226;BME280;55045;49.410;11.030;2023-05-24T16:05:16;98298.56;;;15.04;80.33
68226;BME280;55045;49.410;11.030;2023-05-24T16:08:22;98289.06;;;14.88;77.05